AirNav   TITAN Aviation Fuels
 
 458 users online  

CT19 Laurie Field Airport
Hazardville, Connecticut, USA

GOING TO HAZARDVILLE?


FAA INFORMATION EFFECTIVE 07 OCTOBER 2021

Location

FAA Identifier: CT19
Lat/Long: 41-58-05.3480N 072-32-23.3130W
41-58.089133N 072-32.388550W
41.9681522,-72.5398092
(estimated)
Elevation: 129 ft. / 39 m (estimated)
Variation: 15W (1985)
From city: 1 mile S of HAZARDVILLE, CT
Time zone: UTC -4 (UTC -5 during Standard Time)
Zip code: 06082

Airport Operations

Airport use: Private use. Permission required prior to landing
Activation date: 11/1964
Control tower: no
ARTCC: BOSTON CENTER
FSS: BRIDGEPORT FLIGHT SERVICE STATION
Attendance: UNATNDD
Wind indicator: yes
Segmented circle: no

Airport Communications

WX ASOS at BDL (7 nm W): 118.15 (860-386-3480)
WX ASOS at BAF (14 nm NW): 127.1 (413-568-2267)
WX ASOS at HFD (15 nm S): PHONE 860-527-5837
WX AWOS-AV at CT71 (19 nm SW): 129.825

Nearby radio navigation aids

VOR radial/distance  VOR name  Freq  Var
BAFr160/14.0BARNES VORTAC113.0014W
HFDr014/19.6HARTFORD VOR/DME114.9013W
CTRr150/26.6CHESTER VOR/DME115.1013W
PUTr285/31.0PUTNAM VOR/DME117.4014W
ORWr330/34.6NORWICH VOR/DME110.0014W
MADr023/39.8MADISON VOR/DME110.4013W

Airport Services

Airframe service: NONE
Powerplant service: NONE

Runway Information

Runway 3/21

Dimensions: 1800 x 100 ft. / 549 x 30 m
Surface: turf
RUNWAY 3  RUNWAY 21
Traffic pattern: leftleft
Obstructions: nonepline, 1000 ft. from runway

Airport Ownership and Management from official FAA records

Ownership: Privately-owned
Owner: JARMOC REAL ESTATE LLC
33 SCHOOL STREET
ENFIELD, CT 06082
Phone 860-306-7775
PHONE AT BARN 860-749-7970.
Manager: STEVEN JARMOC
33 SCHOOL STREET
ENFIELD, CT 06082
Phone 860-306-7775
CELL PHONE 860-749-7970.

Airport Operational Statistics

Aircraft based on the field: 2
Single engine airplanes: 2
    

Additional Remarks

FOR CD CTC YANKEE APCH AT 860-386-3597

Instrument Procedures

There are no published instrument procedures at CT19.

Some nearby airports with instrument procedures:

KBDL - Bradley International Airport (7 nm W)
KCEF - Westover Air Reserve Base/Metropolitan Airport (14 nm N)
KBAF - Westfield-Barnes Regional Airport (14 nm NW)
KHFD - Hartford-Brainard Airport (15 nm S)
KIJD - Windham Airport (21 nm SE)
 
Loc | Ops | Rwys | IFR | FBO | Links
Com | Nav | Svcs | Stats | Notes

Silver City Flying Club
 
Area around CT19 (Laurie Field Airport)
 
Road maps at: MapQuest Bing Google
 
Aerial photo
No photo
 
Sectional chart

 
Airport distance calculator
Flying to Laurie Field Airport? Find the distance to fly.

From to CT19

Sunrise and sunset
Times for 28-Oct-2021
 Local
(UTC-4)
 Zulu
(UTC)
Morning civil twilight06:5010:50
Sunrise07:1911:19
Sunset17:4921:49
Evening civil twilight18:1822:18

Current date and time
Zulu (UTC)  28-Oct-2021 06:08:06
Local (UTC-4)  28-Oct-2021 02:08:06
 
METAR
KBDL 
7nm W 
280551Z 35007KT 10SM BKN035 10/04 A2988 RMK AO2 SLP120 T01000044 10117 20094 53010
KCEF 
14nm N 
280556Z AUTO 35004KT 10SM OVC035 09/04 A2987 RMK AO2 SLP122 T00870035 10117 20077 50009
KBAF 
14nm NW 
280553Z AUTO 34007KT 10SM BKN037 09/04 A2989 RMK AO2 SLP123 T00940039 10117 20083 53010
KHFD 
15nm S 
280553Z AUTO 33007KT 10SM OVC035 10/05 A2987 RMK AO2 SLP116 T01000050 10111 20083 53007
TAF
KBDL 
7nm W 
280529Z 2806/2912 35008KT P6SM FEW080 FEW250 FM281300 01007KT P6SM SCT045 FM281600 02007KT P6SM BKN020 FM282100 03005KT P6SM SCT035 FM290100 02004KT P6SM FEW150
KCEF 
14nm N 
280200Z 2802/2908 01009KT 9999 FEW045 BKN080 520202 QNH2984INS BECMG 2804/2805 01009KT 9999 SCT025 BKN045 510103 QNH2986INS BECMG 2814/2815 03012KT 9999 BKN035 QNH2995INS BECMG 2821/2822 VRB06KT 9999 FEW035 QNH2997INS TX14/2818Z TN05/2811Z LAST NO AMDS AFT 2803 NEXT 2811
KBAF 
14nm NW 
280529Z 2806/2906 36008KT P6SM SKC FM281500 02006KT P6SM SCT025 FM281700 02005KT P6SM BKN025 FM282000 03005KT P6SM BKN035 FM290000 00000KT P6SM FEW150
NOTAMs
Click for the latest NOTAMs
NOTAMs are issued by the DoD/FAA and will open in a separate window not controlled by AirNav.

 

 
 

Would you like to see your business listed on this page?

 If your business provides an interesting product or service to pilots, flight crews, aircraft, or users of the Laurie Field Airport, you should consider listing it here.  To start the listing process, click on the button below
 
Add a business
 

Other Pages about Laurie Field Airport

Update a link
 
Copyright © AirNav, LLC. All rights reserved. Privacy Policy  Contact